sensor_id;sensor_type;location;lat;lon;timestamp;P1;durP1;ratioP1;P2;durP2;ratioP2
76256;SDS011;65074;50.436;8.672;2023-03-19T00:01:54;6.72;;;3.53;;
76256;SDS011;65074;50.436;8.672;2023-03-19T00:04:20;6.10;;;4.20;;
76256;SDS011;65074;50.436;8.672;2023-03-19T00:06:46;6.05;;;3.58;;
76256;SDS011;65074;50.436;8.672;2023-03-19T00:09:11;7.38;;;4.20;;
76256;SDS011;65074;50.436;8.672;2023-03-19T00:11:37;7.18;;;3.80;;
76256;SDS011;65074;50.436;8.672;2023-03-19T00:14:02;6.03;;;4.18;;
76256;SDS011;65074;50.436;8.672;2023-03-19T00:16:28;6.18;;;4.07;;
76256;SDS011;65074;50.436;8.672;2023-03-19T00:18:53;7.70;;;4.03;;
76256;SDS011;65074;50.436;8.672;2023-03-19T00:21:19;8.43;;;4.90;;
76256;SDS011;65074;50.436;8.672;2023-03-19T00:23:45;6.53;;;4.45;;
76256;SDS011;65074;50.436;8.672;2023-03-19T00:26:11;6.00;;;4.82;;
76256;SDS011;65074;50.436;8.672;2023-03-19T00:28:36;6.40;;;4.05;;
76256;SDS011;65074;50.436;8.672;2023-03-19T00:31:06;7.53;;;4.50;;
76256;SDS011;65074;50.436;8.672;2023-03-19T00:33:36;7.65;;;4.82;;
76256;SDS011;65074;50.436;8.672;2023-03-19T00:36:02;6.03;;;5.15;;
76256;SDS011;65074;50.436;8.672;2023-03-19T00:38:28;7.53;;;5.15;;
76256;SDS011;65074;50.436;8.672;2023-03-19T00:40:54;8.02;;;5.68;;
76256;SDS011;65074;50.436;8.672;2023-03-19T00:43:19;10.23;;;5.70;;
76256;SDS011;65074;50.436;8.672;2023-03-19T00:45:44;11.60;;;6.03;;
76256;SDS011;65074;50.436;8.672;2023-03-19T00:48:10;9.55;;;5.85;;
76256;SDS011;65074;50.436;8.672;2023-03-19T00:50:35;9.77;;;6.53;;
76256;SDS011;65074;50.436;8.672;2023-03-19T00:53:01;9.85;;;6.38;;
76256;SDS011;65074;50.436;8.672;2023-03-19T00:55:26;8.68;;;5.75;;
76256;SDS011;65074;50.436;8.672;2023-03-19T00:57:51;6.55;;;5.47;;
76256;SDS011;65074;50.436;8.672;2023-03-19T01:00:17;14.07;;;6.63;;
76256;SDS011;65074;50.436;8.672;2023-03-19T01:02:43;9.43;;;6.43;;
76256;SDS011;65074;50.436;8.672;2023-03-19T01:05:09;9.75;;;6.20;;
76256;SDS011;65074;50.436;8.672;2023-03-19T01:07:34;8.48;;;6.50;;
76256;SDS011;65074;50.436;8.672;2023-03-19T01:09:59;10.55;;;6.15;;
76256;SDS011;65074;50.436;8.672;2023-03-19T01:12:26;10.30;;;5.95;;
76256;SDS011;65074;50.436;8.672;2023-03-19T01:14:51;9.98;;;6.25;;
76256;SDS011;65074;50.436;8.672;2023-03-19T01:17:17;8.07;;;5.63;;
76256;SDS011;65074;50.436;8.672;2023-03-19T01:19:42;8.88;;;5.72;;
76256;SDS011;65074;50.436;8.672;2023-03-19T01:22:07;11.95;;;7.00;;
76256;SDS011;65074;50.436;8.672;2023-03-19T01:24:34;9.88;;;6.13;;
76256;SDS011;65074;50.436;8.672;2023-03-19T01:27:00;9.63;;;6.15;;
76256;SDS011;65074;50.436;8.672;2023-03-19T01:29:33;12.38;;;7.10;;
76256;SDS011;65074;50.436;8.672;2023-03-19T01:32:07;12.85;;;6.60;;
76256;SDS011;65074;50.436;8.672;2023-03-19T01:34:42;14.23;;;6.68;;
76256;SDS011;65074;50.436;8.672;2023-03-19T01:37:10;11.50;;;6.28;;
76256;SDS011;65074;50.436;8.672;2023-03-19T01:39:37;11.43;;;6.93;;
76256;SDS011;65074;50.436;8.672;2023-03-19T01:42:07;10.05;;;7.38;;
76256;SDS011;65074;50.436;8.672;2023-03-19T01:44:37;11.88;;;7.78;;
76256;SDS011;65074;50.436;8.672;2023-03-19T01:47:32;10.80;;;7.13;;
76256;SDS011;65074;50.436;8.672;2023-03-19T01:50:23;11.38;;;6.60;;
76256;SDS011;65074;50.436;8.672;2023-03-19T01:53:22;12.70;;;7.50;;
76256;SDS011;65074;50.436;8.672;2023-03-19T01:56:01;20.13;;;9.73;;
76256;SDS011;65074;50.436;8.672;2023-03-19T01:58:47;15.50;;;8.30;;
76256;SDS011;65074;50.436;8.672;2023-03-19T02:01:26;9.38;;;7.53;;
76256;SDS011;65074;50.436;8.672;2023-03-19T02:03:53;12.23;;;7.55;;
76256;SDS011;65074;50.436;8.672;2023-03-19T02:06:25;8.02;;;6.15;;
76256;SDS011;65074;50.436;8.672;2023-03-19T02:08:54;11.15;;;6.55;;
76256;SDS011;65074;50.436;8.672;2023-03-19T02:11:20;9.93;;;6.63;;
76256;SDS011;65074;50.436;8.672;2023-03-19T02:13:46;11.43;;;6.78;;
76256;SDS011;65074;50.436;8.672;2023-03-19T02:16:12;12.57;;;6.10;;
76256;SDS011;65074;50.436;8.672;2023-03-19T02:18:40;10.48;;;6.30;;
76256;SDS011;65074;50.436;8.672;2023-03-19T02:21:07;9.25;;;6.18;;
76256;SDS011;65074;50.436;8.672;2023-03-19T02:26:48;9.02;;;6.55;;
76256;SDS011;65074;50.436;8.672;2023-03-19T02:29:16;11.32;;;7.05;;
76256;SDS011;65074;50.436;8.672;2023-03-19T02:31:41;9.75;;;7.32;;
76256;SDS011;65074;50.436;8.672;2023-03-19T02:36:50;15.77;;;7.15;;
76256;SDS011;65074;50.436;8.672;2023-03-19T02:39:24;12.50;;;7.63;;
76256;SDS011;65074;50.436;8.672;2023-03-19T02:41:54;9.95;;;6.95;;
76256;SDS011;65074;50.436;8.672;2023-03-19T02:44:24;10.57;;;6.88;;
76256;SDS011;65074;50.436;8.672;2023-03-19T02:46:50;9.43;;;6.57;;
76256;SDS011;65074;50.436;8.672;2023-03-19T02:49:16;12.75;;;6.68;;
76256;SDS011;65074;50.436;8.672;2023-03-19T02:51:41;12.73;;;6.90;;
76256;SDS011;65074;50.436;8.672;2023-03-19T02:54:07;10.43;;;6.57;;
76256;SDS011;65074;50.436;8.672;2023-03-19T02:56:32;11.48;;;6.65;;
76256;SDS011;65074;50.436;8.672;2023-03-19T02:58:58;11.95;;;6.95;;
76256;SDS011;65074;50.436;8.672;2023-03-19T03:01:23;11.07;;;7.05;;
76256;SDS011;65074;50.436;8.672;2023-03-19T03:03:48;14.07;;;7.70;;
76256;SDS011;65074;50.436;8.672;2023-03-19T03:06:14;12.95;;;8.00;;
76256;SDS011;65074;50.436;8.672;2023-03-19T03:08:41;12.48;;;7.38;;
76256;SDS011;65074;50.436;8.672;2023-03-19T03:11:07;14.18;;;8.00;;
76256;SDS011;65074;50.436;8.672;2023-03-19T03:13:33;14.10;;;8.25;;
76256;SDS011;65074;50.436;8.672;2023-03-19T03:16:00;12.15;;;8.05;;
76256;SDS011;65074;50.436;8.672;2023-03-19T03:18:26;12.88;;;8.50;;
76256;SDS011;65074;50.436;8.672;2023-03-19T03:20:52;13.02;;;7.88;;
76256;SDS011;65074;50.436;8.672;2023-03-19T03:23:18;14.50;;;7.95;;
76256;SDS011;65074;50.436;8.672;2023-03-19T03:25:43;13.25;;;7.60;;
76256;SDS011;65074;50.436;8.672;2023-03-19T03:28:09;11.75;;;7.53;;
76256;SDS011;65074;50.436;8.672;2023-03-19T03:30:34;11.50;;;7.65;;
76256;SDS011;65074;50.436;8.672;2023-03-19T03:33:00;12.52;;;7.55;;
76256;SDS011;65074;50.436;8.672;2023-03-19T03:35:26;13.10;;;7.65;;
76256;SDS011;65074;50.436;8.672;2023-03-19T03:37:52;12.45;;;7.15;;
76256;SDS011;65074;50.436;8.672;2023-03-19T03:40:17;14.00;;;8.50;;
76256;SDS011;65074;50.436;8.672;2023-03-19T03:42:43;17.20;;;9.90;;
76256;SDS011;65074;50.436;8.672;2023-03-19T03:45:09;19.45;;;9.32;;
76256;SDS011;65074;50.436;8.672;2023-03-19T03:47:36;14.95;;;8.63;;
76256;SDS011;65074;50.436;8.672;2023-03-19T03:50:03;12.75;;;8.45;;
76256;SDS011;65074;50.436;8.672;2023-03-19T03:52:29;14.98;;;9.70;;
76256;SDS011;65074;50.436;8.672;2023-03-19T03:54:56;15.90;;;10.13;;
76256;SDS011;65074;50.436;8.672;2023-03-19T03:57:22;14.98;;;9.55;;
76256;SDS011;65074;50.436;8.672;2023-03-19T03:59:48;14.02;;;9.13;;
76256;SDS011;65074;50.436;8.672;2023-03-19T04:02:14;14.88;;;9.45;;
76256;SDS011;65074;50.436;8.672;2023-03-19T04:04:40;17.10;;;9.45;;
76256;SDS011;65074;50.436;8.672;2023-03-19T04:07:06;15.35;;;8.82;;
76256;SDS011;65074;50.436;8.672;2023-03-19T04:09:40;14.35;;;9.13;;
76256;SDS011;65074;50.436;8.672;2023-03-19T04:12:06;14.15;;;8.80;;
76256;SDS011;65074;50.436;8.672;2023-03-19T04:14:32;16.35;;;9.15;;
76256;SDS011;65074;50.436;8.672;2023-03-19T04:16:57;15.00;;;8.98;;
76256;SDS011;65074;50.436;8.672;2023-03-19T04:19:23;12.45;;;8.85;;
76256;SDS011;65074;50.436;8.672;2023-03-19T04:21:48;15.93;;;8.68;;
76256;SDS011;65074;50.436;8.672;2023-03-19T04:24:14;14.48;;;8.85;;
76256;SDS011;65074;50.436;8.672;2023-03-19T04:26:40;15.48;;;9.70;;
76256;SDS011;65074;50.436;8.672;2023-03-19T04:29:05;12.07;;;8.77;;
76256;SDS011;65074;50.436;8.672;2023-03-19T04:31:33;17.45;;;9.25;;
76256;SDS011;65074;50.436;8.672;2023-03-19T04:33:59;12.63;;;9.07;;
76256;SDS011;65074;50.436;8.672;2023-03-19T04:36:24;12.18;;;8.65;;
76256;SDS011;65074;50.436;8.672;2023-03-19T04:38:50;15.65;;;8.80;;
76256;SDS011;65074;50.436;8.672;2023-03-19T04:41:16;12.65;;;8.95;;
76256;SDS011;65074;50.436;8.672;2023-03-19T04:43:52;13.13;;;8.82;;
76256;SDS011;65074;50.436;8.672;2023-03-19T04:46:17;13.65;;;8.73;;
76256;SDS011;65074;50.436;8.672;2023-03-19T04:48:43;14.80;;;9.00;;
76256;SDS011;65074;50.436;8.672;2023-03-19T04:51:09;13.77;;;9.40;;
76256;SDS011;65074;50.436;8.672;2023-03-19T04:53:36;14.38;;;9.40;;
76256;SDS011;65074;50.436;8.672;2023-03-19T04:56:03;17.70;;;10.00;;
76256;SDS011;65074;50.436;8.672;2023-03-19T04:58:29;16.23;;;9.90;;
76256;SDS011;65074;50.436;8.672;2023-03-19T05:00:59;16.25;;;10.55;;
76256;SDS011;65074;50.436;8.672;2023-03-19T05:03:44;14.45;;;10.13;;
76256;SDS011;65074;50.436;8.672;2023-03-19T05:06:09;15.30;;;9.52;;
76256;SDS011;65074;50.436;8.672;2023-03-19T05:08:36;13.52;;;9.13;;
76256;SDS011;65074;50.436;8.672;2023-03-19T05:11:01;15.95;;;9.60;;
76256;SDS011;65074;50.436;8.672;2023-03-19T05:13:33;14.60;;;10.55;;
76256;SDS011;65074;50.436;8.672;2023-03-19T05:15:59;13.52;;;9.30;;
76256;SDS011;65074;50.436;8.672;2023-03-19T05:18:24;14.10;;;9.32;;
76256;SDS011;65074;50.436;8.672;2023-03-19T05:20:51;14.52;;;9.52;;
76256;SDS011;65074;50.436;8.672;2023-03-19T05:23:21;14.18;;;9.95;;
76256;SDS011;65074;50.436;8.672;2023-03-19T05:26:02;15.50;;;9.77;;
76256;SDS011;65074;50.436;8.672;2023-03-19T05:28:46;18.67;;;11.10;;
76256;SDS011;65074;50.436;8.672;2023-03-19T05:31:14;17.35;;;10.23;;
76256;SDS011;65074;50.436;8.672;2023-03-19T05:33:44;16.10;;;9.95;;
76256;SDS011;65074;50.436;8.672;2023-03-19T05:36:10;17.23;;;10.90;;
76256;SDS011;65074;50.436;8.672;2023-03-19T05:38:51;22.02;;;11.77;;
76256;SDS011;65074;50.436;8.672;2023-03-19T05:41:23;19.77;;;12.05;;
76256;SDS011;65074;50.436;8.672;2023-03-19T05:43:56;18.40;;;11.15;;
76256;SDS011;65074;50.436;8.672;2023-03-19T05:46:37;19.55;;;10.70;;
76256;SDS011;65074;50.436;8.672;2023-03-19T05:49:03;18.55;;;11.27;;
76256;SDS011;65074;50.436;8.672;2023-03-19T05:51:29;20.05;;;11.27;;
76256;SDS011;65074;50.436;8.672;2023-03-19T05:53:56;18.02;;;11.82;;
76256;SDS011;65074;50.436;8.672;2023-03-19T05:56:35;17.15;;;10.90;;
76256;SDS011;65074;50.436;8.672;2023-03-19T05:59:19;17.42;;;10.65;;
76256;SDS011;65074;50.436;8.672;2023-03-19T06:01:56;18.45;;;10.15;;
76256;SDS011;65074;50.436;8.672;2023-03-19T06:04:22;17.67;;;10.57;;
76256;SDS011;65074;50.436;8.672;2023-03-19T06:06:49;17.52;;;10.63;;
76256;SDS011;65074;50.436;8.672;2023-03-19T06:09:15;19.65;;;10.43;;
76256;SDS011;65074;50.436;8.672;2023-03-19T06:11:43;19.92;;;11.02;;
76256;SDS011;65074;50.436;8.672;2023-03-19T06:14:27;16.17;;;10.32;;
76256;SDS011;65074;50.436;8.672;2023-03-19T06:17:11;16.95;;;10.93;;
76256;SDS011;65074;50.436;8.672;2023-03-19T06:19:37;19.23;;;11.60;;
76256;SDS011;65074;50.436;8.672;2023-03-19T06:22:02;19.15;;;12.43;;
76256;SDS011;65074;50.436;8.672;2023-03-19T06:24:28;14.98;;;11.07;;
76256;SDS011;65074;50.436;8.672;2023-03-19T06:26:55;18.83;;;11.55;;
76256;SDS011;65074;50.436;8.672;2023-03-19T06:29:20;17.40;;;11.35;;
76256;SDS011;65074;50.436;8.672;2023-03-19T06:31:51;16.45;;;11.43;;
76256;SDS011;65074;50.436;8.672;2023-03-19T06:34:34;16.63;;;10.50;;
76256;SDS011;65074;50.436;8.672;2023-03-19T06:37:00;19.60;;;10.98;;
76256;SDS011;65074;50.436;8.672;2023-03-19T06:39:26;17.20;;;10.85;;
76256;SDS011;65074;50.436;8.672;2023-03-19T06:41:52;16.02;;;10.95;;
76256;SDS011;65074;50.436;8.672;2023-03-19T06:44:22;15.07;;;10.45;;
76256;SDS011;65074;50.436;8.672;2023-03-19T06:47:30;17.42;;;11.05;;
76256;SDS011;65074;50.436;8.672;2023-03-19T06:49:58;14.85;;;9.75;;
76256;SDS011;65074;50.436;8.672;2023-03-19T06:52:26;15.13;;;10.55;;
76256;SDS011;65074;50.436;8.672;2023-03-19T06:54:54;15.52;;;9.55;;
76256;SDS011;65074;50.436;8.672;2023-03-19T06:57:26;15.98;;;10.73;;
76256;SDS011;65074;50.436;8.672;2023-03-19T06:59:52;13.68;;;10.13;;
76256;SDS011;65074;50.436;8.672;2023-03-19T07:02:20;15.32;;;10.00;;
76256;SDS011;65074;50.436;8.672;2023-03-19T07:04:48;14.95;;;10.13;;
76256;SDS011;65074;50.436;8.672;2023-03-19T07:07:22;12.38;;;8.98;;
76256;SDS011;65074;50.436;8.672;2023-03-19T07:09:58;13.27;;;9.70;;
76256;SDS011;65074;50.436;8.672;2023-03-19T07:12:32;14.90;;;10.13;;
76256;SDS011;65074;50.436;8.672;2023-03-19T07:15:00;13.80;;;9.18;;
76256;SDS011;65074;50.436;8.672;2023-03-19T07:17:29;12.35;;;9.25;;
76256;SDS011;65074;50.436;8.672;2023-03-19T07:19:55;11.88;;;8.70;;
76256;SDS011;65074;50.436;8.672;2023-03-19T07:22:20;15.77;;;9.07;;
76256;SDS011;65074;50.436;8.672;2023-03-19T07:24:48;14.13;;;8.68;;
76256;SDS011;65074;50.436;8.672;2023-03-19T07:27:17;11.60;;;8.63;;
76256;SDS011;65074;50.436;8.672;2023-03-19T07:29:57;10.65;;;8.55;;
76256;SDS011;65074;50.436;8.672;2023-03-19T07:32:35;15.75;;;9.23;;
76256;SDS011;65074;50.436;8.672;2023-03-19T07:35:04;11.77;;;8.43;;
76256;SDS011;65074;50.436;8.672;2023-03-19T07:37:31;14.23;;;8.82;;
76256;SDS011;65074;50.436;8.672;2023-03-19T07:40:03;12.55;;;8.02;;
76256;SDS011;65074;50.436;8.672;2023-03-19T07:42:38;12.77;;;8.15;;
76256;SDS011;65074;50.436;8.672;2023-03-19T07:45:05;13.95;;;9.40;;
76256;SDS011;65074;50.436;8.672;2023-03-19T07:47:31;16.08;;;8.65;;
76256;SDS011;65074;50.436;8.672;2023-03-19T07:49:57;11.43;;;8.27;;
76256;SDS011;65074;50.436;8.672;2023-03-19T07:52:23;14.48;;;9.05;;
76256;SDS011;65074;50.436;8.672;2023-03-19T07:54:49;12.40;;;8.65;;
76256;SDS011;65074;50.436;8.672;2023-03-19T07:57:15;12.93;;;8.52;;
76256;SDS011;65074;50.436;8.672;2023-03-19T07:59:40;10.77;;;8.32;;
76256;SDS011;65074;50.436;8.672;2023-03-19T08:02:07;13.32;;;9.05;;
76256;SDS011;65074;50.436;8.672;2023-03-19T08:04:35;11.60;;;9.05;;
76256;SDS011;65074;50.436;8.672;2023-03-19T08:07:01;11.07;;;9.55;;
76256;SDS011;65074;50.436;8.672;2023-03-19T08:09:26;14.30;;;9.82;;
76256;SDS011;65074;50.436;8.672;2023-03-19T08:11:52;14.55;;;9.25;;
76256;SDS011;65074;50.436;8.672;2023-03-19T08:14:17;13.85;;;9.65;;
76256;SDS011;65074;50.436;8.672;2023-03-19T08:16:46;12.88;;;8.90;;
76256;SDS011;65074;50.436;8.672;2023-03-19T08:19:12;10.18;;;8.07;;
76256;SDS011;65074;50.436;8.672;2023-03-19T08:21:38;11.13;;;7.68;;
76256;SDS011;65074;50.436;8.672;2023-03-19T08:24:03;10.90;;;7.55;;
76256;SDS011;65074;50.436;8.672;2023-03-19T08:26:29;12.02;;;7.50;;
76256;SDS011;65074;50.436;8.672;2023-03-19T08:28:54;12.15;;;7.93;;
76256;SDS011;65074;50.436;8.672;2023-03-19T08:31:20;9.70;;;7.30;;
76256;SDS011;65074;50.436;8.672;2023-03-19T08:33:46;9.27;;;7.00;;
76256;SDS011;65074;50.436;8.672;2023-03-19T08:36:12;11.45;;;7.90;;
76256;SDS011;65074;50.436;8.672;2023-03-19T08:38:38;9.77;;;7.00;;
76256;SDS011;65074;50.436;8.672;2023-03-19T08:41:03;9.48;;;6.95;;
76256;SDS011;65074;50.436;8.672;2023-03-19T08:43:30;7.25;;;6.10;;
76256;SDS011;65074;50.436;8.672;2023-03-19T08:45:57;9.18;;;6.47;;
76256;SDS011;65074;50.436;8.672;2023-03-19T08:48:23;11.30;;;6.43;;
76256;SDS011;65074;50.436;8.672;2023-03-19T08:50:55;7.50;;;6.20;;
76256;SDS011;65074;50.436;8.672;2023-03-19T08:53:22;8.98;;;5.95;;
76256;SDS011;65074;50.436;8.672;2023-03-19T08:55:55;7.38;;;5.50;;
76256;SDS011;65074;50.436;8.672;2023-03-19T08:58:31;9.00;;;5.38;;
76256;SDS011;65074;50.436;8.672;2023-03-19T09:01:01;9.45;;;6.25;;
76256;SDS011;65074;50.436;8.672;2023-03-19T09:03:31;11.60;;;5.53;;
76256;SDS011;65074;50.436;8.672;2023-03-19T09:05:57;8.23;;;5.70;;
76256;SDS011;65074;50.436;8.672;2023-03-19T09:08:27;9.20;;;6.30;;
76256;SDS011;65074;50.436;8.672;2023-03-19T09:10:53;8.10;;;5.50;;
76256;SDS011;65074;50.436;8.672;2023-03-19T09:13:19;8.02;;;5.45;;
76256;SDS011;65074;50.436;8.672;2023-03-19T09:15:44;8.70;;;4.97;;
76256;SDS011;65074;50.436;8.672;2023-03-19T09:18:09;7.20;;;5.75;;
76256;SDS011;65074;50.436;8.672;2023-03-19T09:20:35;7.25;;;5.32;;
76256;SDS011;65074;50.436;8.672;2023-03-19T09:23:01;8.32;;;5.80;;
76256;SDS011;65074;50.436;8.672;2023-03-19T09:25:26;7.78;;;5.63;;
76256;SDS011;65074;50.436;8.672;2023-03-19T09:27:51;10.55;;;6.30;;
76256;SDS011;65074;50.436;8.672;2023-03-19T09:30:17;10.50;;;6.55;;
76256;SDS011;65074;50.436;8.672;2023-03-19T09:32:42;8.65;;;6.78;;
76256;SDS011;65074;50.436;8.672;2023-03-19T09:35:08;11.82;;;6.25;;
76256;SDS011;65074;50.436;8.672;2023-03-19T09:37:33;8.98;;;6.63;;
76256;SDS011;65074;50.436;8.672;2023-03-19T09:39:59;10.85;;;7.00;;
76256;SDS011;65074;50.436;8.672;2023-03-19T09:45:13;9.10;;;6.32;;
76256;SDS011;65074;50.436;8.672;2023-03-19T09:47:40;7.63;;;6.10;;
76256;SDS011;65074;50.436;8.672;2023-03-19T09:50:18;7.70;;;5.63;;
76256;SDS011;65074;50.436;8.672;2023-03-19T09:52:50;8.63;;;6.63;;
76256;SDS011;65074;50.436;8.672;2023-03-19T09:57:48;8.57;;;6.03;;
76256;SDS011;65074;50.436;8.672;2023-03-19T10:00:18;10.80;;;6.40;;
76256;SDS011;65074;50.436;8.672;2023-03-19T10:02:47;9.52;;;5.95;;
76256;SDS011;65074;50.436;8.672;2023-03-19T10:05:40;11.50;;;5.90;;
76256;SDS011;65074;50.436;8.672;2023-03-19T10:08:21;8.05;;;5.55;;
76256;SDS011;65074;50.436;8.672;2023-03-19T10:10:54;8.43;;;6.03;;
76256;SDS011;65074;50.436;8.672;2023-03-19T10:16:52;7.60;;;5.25;;
76256;SDS011;65074;50.436;8.672;2023-03-19T10:19:56;7.93;;;5.18;;
76256;SDS011;65074;50.436;8.672;2023-03-19T10:22:39;7.05;;;4.80;;
76256;SDS011;65074;50.436;8.672;2023-03-19T10:25:11;7.40;;;5.15;;
76256;SDS011;65074;50.436;8.672;2023-03-19T10:27:55;7.95;;;5.25;;
76256;SDS011;65074;50.436;8.672;2023-03-19T10:30:25;7.82;;;4.43;;
76256;SDS011;65074;50.436;8.672;2023-03-19T10:33:11;6.82;;;5.00;;
76256;SDS011;65074;50.436;8.672;2023-03-19T10:35:47;5.63;;;4.70;;
76256;SDS011;65074;50.436;8.672;2023-03-19T10:38:26;5.95;;;4.68;;
76256;SDS011;65074;50.436;8.672;2023-03-19T10:41:15;5.72;;;3.70;;
76256;SDS011;65074;50.436;8.672;2023-03-19T10:44:01;5.35;;;3.50;;
76256;SDS011;65074;50.436;8.672;2023-03-19T10:46:37;6.20;;;4.18;;
76256;SDS011;65074;50.436;8.672;2023-03-19T10:51:37;4.70;;;4.18;;
76256;SDS011;65074;50.436;8.672;2023-03-19T10:54:12;5.97;;;4.00;;
76256;SDS011;65074;50.436;8.672;2023-03-19T10:56:50;6.18;;;3.60;;
76256;SDS011;65074;50.436;8.672;2023-03-19T10:59:40;5.82;;;4.13;;
76256;SDS011;65074;50.436;8.672;2023-03-19T11:02:21;3.92;;;3.50;;
76256;SDS011;65074;50.436;8.672;2023-03-19T11:07:50;5.75;;;3.33;;
76256;SDS011;65074;50.436;8.672;2023-03-19T11:10:23;5.22;;;3.30;;
76256;SDS011;65074;50.436;8.672;2023-03-19T11:12:51;3.92;;;2.72;;
76256;SDS011;65074;50.436;8.672;2023-03-19T11:17:47;5.95;;;1.58;;
76256;SDS011;65074;50.436;8.672;2023-03-19T11:20:20;2.47;;;1.38;;
76256;SDS011;65074;50.436;8.672;2023-03-19T11:25:15;1.80;;;1.13;;
76256;SDS011;65074;50.436;8.672;2023-03-19T11:27:43;2.45;;;1.23;;
76256;SDS011;65074;50.436;8.672;2023-03-19T11:30:21;1.58;;;0.98;;
76256;SDS011;65074;50.436;8.672;2023-03-19T11:35:44;1.65;;;0.90;;
76256;SDS011;65074;50.436;8.672;2023-03-19T11:38:31;2.22;;;0.90;;
76256;SDS011;65074;50.436;8.672;2023-03-19T11:43:49;1.55;;;0.82;;
76256;SDS011;65074;50.436;8.672;2023-03-19T11:50:10;1.80;;;1.40;;
76256;SDS011;65074;50.436;8.672;2023-03-19T11:58:31;2.03;;;1.40;;
76256;SDS011;65074;50.436;8.672;2023-03-19T12:01:34;2.25;;;1.52;;
76256;SDS011;65074;50.436;8.672;2023-03-19T12:04:18;3.72;;;1.80;;
76256;SDS011;65074;50.436;8.672;2023-03-19T12:12:20;3.97;;;1.90;;
76256;SDS011;65074;50.436;8.672;2023-03-19T12:15:12;3.72;;;1.90;;
76256;SDS011;65074;50.436;8.672;2023-03-19T12:17:53;3.17;;;1.63;;
76256;SDS011;65074;50.436;8.672;2023-03-19T12:23:06;2.95;;;1.40;;
76256;SDS011;65074;50.436;8.672;2023-03-19T12:36:56;2.75;;;1.60;;
76256;SDS011;65074;50.436;8.672;2023-03-19T12:39:33;4.80;;;1.50;;
76256;SDS011;65074;50.436;8.672;2023-03-19T12:47:05;2.63;;;1.50;;
76256;SDS011;65074;50.436;8.672;2023-03-19T12:52:20;3.30;;;1.50;;
76256;SDS011;65074;50.436;8.672;2023-03-19T12:57:50;2.30;;;1.38;;
76256;SDS011;65074;50.436;8.672;2023-03-19T13:03:36;2.45;;;1.55;;
76256;SDS011;65074;50.436;8.672;2023-03-19T13:06:09;2.50;;;1.73;;
76256;SDS011;65074;50.436;8.672;2023-03-19T13:08:51;2.63;;;1.42;;
76256;SDS011;65074;50.436;8.672;2023-03-19T13:17:03;2.22;;;1.30;;
76256;SDS011;65074;50.436;8.672;2023-03-19T13:19:42;2.40;;;1.42;;
76256;SDS011;65074;50.436;8.672;2023-03-19T13:22:15;3.42;;;1.10;;
76256;SDS011;65074;50.436;8.672;2023-03-19T13:24:44;2.80;;;1.10;;
76256;SDS011;65074;50.436;8.672;2023-03-19T13:27:14;1.10;;;0.70;;
76256;SDS011;65074;50.436;8.672;2023-03-19T13:29:56;1.00;;;0.80;;
76256;SDS011;65074;50.436;8.672;2023-03-19T13:32:42;1.30;;;0.73;;
76256;SDS011;65074;50.436;8.672;2023-03-19T13:37:54;1.20;;;0.73;;
76256;SDS011;65074;50.436;8.672;2023-03-19T13:40:37;1.10;;;0.63;;
76256;SDS011;65074;50.436;8.672;2023-03-19T13:43:37;0.80;;;0.43;;
76256;SDS011;65074;50.436;8.672;2023-03-19T13:49:01;1.00;;;0.50;;
76256;SDS011;65074;50.436;8.672;2023-03-19T13:51:41;2.45;;;1.30;;
76256;SDS011;65074;50.436;8.672;2023-03-19T13:59:31;0.60;;;0.32;;
76256;SDS011;65074;50.436;8.672;2023-03-19T14:04:56;1.80;;;1.08;;
76256;SDS011;65074;50.436;8.672;2023-03-19T14:07:27;3.35;;;2.22;;
76256;SDS011;65074;50.436;8.672;2023-03-19T14:12:34;2.47;;;1.10;;
76256;SDS011;65074;50.436;8.672;2023-03-19T14:17:34;2.17;;;0.95;;
76256;SDS011;65074;50.436;8.672;2023-03-19T14:20:19;2.30;;;1.70;;
76256;SDS011;65074;50.436;8.672;2023-03-19T14:28:18;1.67;;;0.80;;
76256;SDS011;65074;50.436;8.672;2023-03-19T14:30:49;0.60;;;0.50;;
76256;SDS011;65074;50.436;8.672;2023-03-19T14:33:17;1.02;;;0.70;;
76256;SDS011;65074;50.436;8.672;2023-03-19T14:35:46;2.22;;;0.68;;
76256;SDS011;65074;50.436;8.672;2023-03-19T14:41:15;1.42;;;0.90;;
76256;SDS011;65074;50.436;8.672;2023-03-19T14:52:39;1.38;;;0.68;;
76256;SDS011;65074;50.436;8.672;2023-03-19T14:55:14;1.00;;;0.68;;
76256;SDS011;65074;50.436;8.672;2023-03-19T14:57:41;1.10;;;0.70;;
76256;SDS011;65074;50.436;8.672;2023-03-19T15:00:12;1.13;;;1.00;;
76256;SDS011;65074;50.436;8.672;2023-03-19T15:02:44;1.27;;;0.60;;
76256;SDS011;65074;50.436;8.672;2023-03-19T15:07:54;0.50;;;0.43;;
76256;SDS011;65074;50.436;8.672;2023-03-19T15:10:23;1.42;;;0.50;;
76256;SDS011;65074;50.436;8.672;2023-03-19T15:12:57;0.93;;;0.30;;
76256;SDS011;65074;50.436;8.672;2023-03-19T15:18:12;0.90;;;0.47;;
76256;SDS011;65074;50.436;8.672;2023-03-19T15:20:43;0.65;;;0.52;;
76256;SDS011;65074;50.436;8.672;2023-03-19T15:23:11;2.60;;;1.63;;
76256;SDS011;65074;50.436;8.672;2023-03-19T15:25:48;0.82;;;0.60;;
76256;SDS011;65074;50.436;8.672;2023-03-19T15:28:16;0.55;;;0.50;;
76256;SDS011;65074;50.436;8.672;2023-03-19T15:30:44;0.70;;;0.40;;
76256;SDS011;65074;50.436;8.672;2023-03-19T15:33:20;0.50;;;0.32;;
76256;SDS011;65074;50.436;8.672;2023-03-19T15:35:51;0.30;;;0.30;;
76256;SDS011;65074;50.436;8.672;2023-03-19T15:38:21;0.20;;;0.20;;
76256;SDS011;65074;50.436;8.672;2023-03-19T15:40:49;0.55;;;0.30;;
76256;SDS011;65074;50.436;8.672;2023-03-19T15:43:15;0.47;;;0.20;;
76256;SDS011;65074;50.436;8.672;2023-03-19T15:45:43;0.70;;;0.30;;
76256;SDS011;65074;50.436;8.672;2023-03-19T15:50:50;0.30;;;0.20;;
76256;SDS011;65074;50.436;8.672;2023-03-19T15:53:23;0.65;;;0.30;;
76256;SDS011;65074;50.436;8.672;2023-03-19T15:55:52;1.38;;;0.20;;
76256;SDS011;65074;50.436;8.672;2023-03-19T15:58:23;0.40;;;0.25;;
76256;SDS011;65074;50.436;8.672;2023-03-19T16:00:52;0.20;;;0.20;;
76256;SDS011;65074;50.436;8.672;2023-03-19T16:03:30;0.10;;;0.10;;
76256;SDS011;65074;50.436;8.672;2023-03-19T16:06:01;0.10;;;0.10;;
76256;SDS011;65074;50.436;8.672;2023-03-19T16:08:29;0.20;;;0.10;;
76256;SDS011;65074;50.436;8.672;2023-03-19T16:10:54;0.30;;;0.20;;
76256;SDS011;65074;50.436;8.672;2023-03-19T16:13:37;0.55;;;0.30;;
76256;SDS011;65074;50.436;8.672;2023-03-19T16:16:05;0.20;;;0.17;;
76256;SDS011;65074;50.436;8.672;2023-03-19T16:18:45;0.17;;;0.10;;
76256;SDS011;65074;50.436;8.672;2023-03-19T16:23:44;0.20;;;0.10;;
76256;SDS011;65074;50.436;8.672;2023-03-19T16:26:23;0.45;;;0.32;;
76256;SDS011;65074;50.436;8.672;2023-03-19T16:28:57;0.40;;;0.20;;
76256;SDS011;65074;50.436;8.672;2023-03-19T16:31:27;1.65;;;0.20;;
76256;SDS011;65074;50.436;8.672;2023-03-19T16:33:56;0.20;;;0.10;;
76256;SDS011;65074;50.436;8.672;2023-03-19T16:36:22;0.88;;;0.80;;
76256;SDS011;65074;50.436;8.672;2023-03-19T16:39:11;0.13;;;0.10;;
76256;SDS011;65074;50.436;8.672;2023-03-19T16:44:38;0.30;;;0.30;;
76256;SDS011;65074;50.436;8.672;2023-03-19T16:47:12;1.35;;;0.20;;
76256;SDS011;65074;50.436;8.672;2023-03-19T16:49:39;0.52;;;0.20;;
76256;SDS011;65074;50.436;8.672;2023-03-19T16:52:05;0.68;;;0.40;;
76256;SDS011;65074;50.436;8.672;2023-03-19T16:54:38;0.90;;;0.50;;
76256;SDS011;65074;50.436;8.672;2023-03-19T16:57:03;0.50;;;0.40;;
76256;SDS011;65074;50.436;8.672;2023-03-19T16:59:28;1.45;;;0.80;;
76256;SDS011;65074;50.436;8.672;2023-03-19T17:01:55;0.77;;;0.60;;
76256;SDS011;65074;50.436;8.672;2023-03-19T17:04:21;1.60;;;0.50;;
76256;SDS011;65074;50.436;8.672;2023-03-19T17:06:48;2.75;;;0.88;;
76256;SDS011;65074;50.436;8.672;2023-03-19T17:09:14;2.10;;;0.70;;